Tropical Cyclones
[Index]
Main Index Home Page Stock Weather Photos Extreme Storms Discussion Storm News and Storm Chasing Reports Tropical Cyclones / Hurricanes / Typhoons Weather Data and Links Wild Fires / Bushfires Weather Observation Techniques Weather Picture Catalogue Tornado Pictures and Reports Stock Video Footage and DVDs for sale
Season 1955-1956 Tropical Cyclone AGNES Track Map
Season 1955-1956 Summaries: [BoM-AU] [JTWC-AU] [JTWC-SIO] [JTWC-SPAC] [JTWC-SH]
<<- Previous TC | BoM 1955-1956 Season | Next TC ->>

click for intensity scale information  Lat/long Grid: Show Hide

 Date Labels: Show Hide

Bureau of Meteorology Tropical Cyclone Data

Name: AGNES
Number: 273 / 195556_13

23 Feb 1956 05:00 UTC to 07 Mar 1956 05:00 UTC

    date/time    lat    long    hPa   cat  kts
1956-02-23 05   17.0   175.0   1004                     
1956-02-23 23   17.0   175.0   1002                     
1956-02-24 17   17.0   175.0    999                     
1956-02-24 23   17.4   175.2   1000                     
1956-02-25 17   18.5   175.5    994    1                
1956-02-25 23   18.9   175.3    996                     
1956-02-26 23   20.0   174.5    990    1                
1956-02-27 23   20.0   173.0    990    1                
1956-02-28 23   21.0   169.7    976    2                
1956-02-29 17   21.3   166.5    980    2                
1956-02-29 23   20.0   166.0    980    2                
1956-03-01 23   19.0   162.5    980    2                
1956-03-02 23   19.0   158.5    980    2                
1956-03-03 05   19.0   157.5    978    2                
1956-03-03 17   19.2   156.5    978    2                
1956-03-03 23   19.4   155.5    979    2                
1956-03-04 05   19.5   154.5    977    2                
1956-03-04 23   20.5   151.5    976    2                
1956-03-05 05   20.5   150.8    975    2                
1956-03-05 11   20.2   149.5    974    2                
1956-03-05 16   20.2   148.8    971    2                
1956-03-05 17   20.0   148.6    971    2                
1956-03-05 18   20.1   148.4    971    2                
1956-03-05 23   19.5   148.1    968    3                
1956-03-06 05   19.2   146.8    961    3                
1956-03-06 07   19.2   146.7    961    3                
1956-03-06 11   18.5   145.9                            
1956-03-06 17   18.4   145.1    971    2                
1956-03-06 23   19.0   143.5    978    2                
1956-03-07 05   19.4   143.0    986    1                
Winds are 10-min average.

Tropical cyclone tracks developed by Michael Bath using data from the Bureau of Meteorology and Google Maps.


[Australian Severe Weather index] [Copyright Notice] [Email Contacts] [Search This Site] [Privacy Policy]
Document: tropical_cyclone_agnes.htm Updated: 30 May 2013